sensor_id;sensor_type;location;lat;lon;timestamp;temperature;humidity
54126;DHT22;40360;52.992;6.796;2022-11-04T05:20:10;9.80;99.90
54126;DHT22;40360;52.992;6.796;2022-11-04T05:22:39;9.70;99.90
54126;DHT22;40360;52.992;6.796;2022-11-04T05:25:05;9.80;99.90
54126;DHT22;40360;52.992;6.796;2022-11-04T05:27:32;9.70;99.90
54126;DHT22;40360;52.992;6.796;2022-11-04T05:29:59;9.70;99.90
54126;DHT22;40360;52.992;6.796;2022-11-04T05:32:28;9.70;99.90
54126;DHT22;40360;52.992;6.796;2022-11-04T05:34:57;9.80;99.90
54126;DHT22;40360;52.992;6.796;2022-11-04T05:37:23;9.70;99.90
54126;DHT22;40360;52.992;6.796;2022-11-04T05:39:48;9.70;99.90
54126;DHT22;40360;52.992;6.796;2022-11-04T05:42:14;9.70;99.90
54126;DHT22;40360;52.992;6.796;2022-11-04T05:44:39;9.70;99.90
54126;DHT22;40360;52.992;6.796;2022-11-04T05:47:05;9.60;99.90
54126;DHT22;40360;52.992;6.796;2022-11-04T05:49:31;9.60;99.90
54126;DHT22;40360;52.992;6.796;2022-11-04T05:51:58;9.60;99.90
54126;DHT22;40360;52.992;6.796;2022-11-04T05:54:23;9.60;99.90
54126;DHT22;40360;52.992;6.796;2022-11-04T05:56:49;9.60;99.90
54126;DHT22;40360;52.992;6.796;2022-11-04T05:59:14;9.60;99.90
54126;DHT22;40360;52.992;6.796;2022-11-04T06:01:41;9.60;99.90
54126;DHT22;40360;52.992;6.796;2022-11-04T06:04:12;9.60;99.90
54126;DHT22;40360;52.992;6.796;2022-11-04T06:06:38;9.60;99.90
54126;DHT22;40360;52.992;6.796;2022-11-04T06:09:04;9.50;99.90
54126;DHT22;40360;52.992;6.796;2022-11-04T06:11:31;9.50;99.90
54126;DHT22;40360;52.992;6.796;2022-11-04T06:13:57;9.40;99.90
54126;DHT22;40360;52.992;6.796;2022-11-04T06:16:23;9.40;99.90
54126;DHT22;40360;52.992;6.796;2022-11-04T06:18:49;9.40;99.90
54126;DHT22;40360;52.992;6.796;2022-11-04T06:23:41;9.40;99.90
54126;DHT22;40360;52.992;6.796;2022-11-04T06:26:08;9.30;99.90
54126;DHT22;40360;52.992;6.796;2022-11-04T06:28:34;9.30;99.90
54126;DHT22;40360;52.992;6.796;2022-11-04T06:31:02;9.20;99.90
54126;DHT22;40360;52.992;6.796;2022-11-04T06:33:29;9.20;99.90
54126;DHT22;40360;52.992;6.796;2022-11-04T06:35:59;9.20;99.90
54126;DHT22;40360;52.992;6.796;2022-11-04T06:38:25;9.20;99.90
54126;DHT22;40360;52.992;6.796;2022-11-04T06:40:51;9.10;99.90
54126;DHT22;40360;52.992;6.796;2022-11-04T06:43:17;9.10;99.90
54126;DHT22;40360;52.992;6.796;2022-11-04T06:45:42;9.10;99.90
54126;DHT22;40360;52.992;6.796;2022-11-04T06:48:08;9.00;99.90
54126;DHT22;40360;52.992;6.796;2022-11-04T06:50:33;9.00;99.90
54126;DHT22;40360;52.992;6.796;2022-11-04T06:52:59;9.00;99.90
54126;DHT22;40360;52.992;6.796;2022-11-04T06:55:25;8.90;99.90
54126;DHT22;40360;52.992;6.796;2022-11-04T06:57:50;8.90;99.90
54126;DHT22;40360;52.992;6.796;2022-11-04T07:00:17;8.90;99.90
54126;DHT22;40360;52.992;6.796;2022-11-04T07:02:43;8.90;99.90
54126;DHT22;40360;52.992;6.796;2022-11-04T07:05:08;8.90;99.90
54126;DHT22;40360;52.992;6.796;2022-11-04T07:07:34;8.90;99.90
54126;DHT22;40360;52.992;6.796;2022-11-04T07:10:00;8.80;99.90
54126;DHT22;40360;52.992;6.796;2022-11-04T07:12:25;8.90;99.90
54126;DHT22;40360;52.992;6.796;2022-11-04T07:14:51;8.90;99.90
54126;DHT22;40360;52.992;6.796;2022-11-04T07:17:17;8.90;99.90
54126;DHT22;40360;52.992;6.796;2022-11-04T07:19:45;8.90;99.90
54126;DHT22;40360;52.992;6.796;2022-11-04T07:22:11;9.00;99.90
54126;DHT22;40360;52.992;6.796;2022-11-04T07:24:37;9.00;99.90
54126;DHT22;40360;52.992;6.796;2022-11-04T07:27:03;9.00;99.90
54126;DHT22;40360;52.992;6.796;2022-11-04T07:29:30;9.00;99.90
54126;DHT22;40360;52.992;6.796;2022-11-04T07:31:56;9.00;99.90
54126;DHT22;40360;52.992;6.796;2022-11-04T07:34:21;9.00;99.90
54126;DHT22;40360;52.992;6.796;2022-11-04T07:36:47;9.10;99.90
54126;DHT22;40360;52.992;6.796;2022-11-04T07:39:12;9.10;99.90
54126;DHT22;40360;52.992;6.796;2022-11-04T07:41:38;9.20;99.90
54126;DHT22;40360;52.992;6.796;2022-11-04T07:44:04;9.20;99.90
54126;DHT22;40360;52.992;6.796;2022-11-04T07:46:30;9.20;99.90
54126;DHT22;40360;52.992;6.796;2022-11-04T07:48:57;9.20;99.90
54126;DHT22;40360;52.992;6.796;2022-11-04T07:51:23;9.20;99.90
54126;DHT22;40360;52.992;6.796;2022-11-04T07:53:49;9.20;99.90
54126;DHT22;40360;52.992;6.796;2022-11-04T07:56:15;9.30;99.90
54126;DHT22;40360;52.992;6.796;2022-11-04T07:58:43;9.30;99.90
54126;DHT22;40360;52.992;6.796;2022-11-04T08:01:16;9.30;99.90
54126;DHT22;40360;52.992;6.796;2022-11-04T08:03:42;9.40;99.90
54126;DHT22;40360;52.992;6.796;2022-11-04T08:06:10;9.40;99.90
54126;DHT22;40360;52.992;6.796;2022-11-04T08:08:36;9.40;99.90
54126;DHT22;40360;52.992;6.796;2022-11-04T08:11:08;9.40;99.90
54126;DHT22;40360;52.992;6.796;2022-11-04T08:13:35;9.50;99.90
54126;DHT22;40360;52.992;6.796;2022-11-04T08:16:05;9.50;99.90
54126;DHT22;40360;52.992;6.796;2022-11-04T08:18:32;9.60;99.90
54126;DHT22;40360;52.992;6.796;2022-11-04T08:20:58;9.60;99.90
54126;DHT22;40360;52.992;6.796;2022-11-04T08:23:24;9.60;99.90
54126;DHT22;40360;52.992;6.796;2022-11-04T08:25:50;9.70;99.90
54126;DHT22;40360;52.992;6.796;2022-11-04T08:28:16;9.70;99.90
54126;DHT22;40360;52.992;6.796;2022-11-04T08:33:22;9.80;99.90
54126;DHT22;40360;52.992;6.796;2022-11-04T08:35:47;9.90;99.90
54126;DHT22;40360;52.992;6.796;2022-11-04T08:38:13;10.00;99.90
54126;DHT22;40360;52.992;6.796;2022-11-04T08:40:39;10.00;99.90
54126;DHT22;40360;52.992;6.796;2022-11-04T08:43:04;10.00;99.90
54126;DHT22;40360;52.992;6.796;2022-11-04T08:45:30;10.00;99.90
54126;DHT22;40360;52.992;6.796;2022-11-04T08:47:55;10.10;99.90
54126;DHT22;40360;52.992;6.796;2022-11-04T08:50:21;10.10;99.90
54126;DHT22;40360;52.992;6.796;2022-11-04T08:52:52;10.20;99.90
54126;DHT22;40360;52.992;6.796;2022-11-04T08:55:18;10.20;99.90
54126;DHT22;40360;52.992;6.796;2022-11-04T08:57:44;10.20;99.90
54126;DHT22;40360;52.992;6.796;2022-11-04T09:00:10;10.30;99.90
54126;DHT22;40360;52.992;6.796;2022-11-04T09:02:36;10.40;99.90
54126;DHT22;40360;52.992;6.796;2022-11-04T09:05:01;10.40;99.90
54126;DHT22;40360;52.992;6.796;2022-11-04T09:07:28;10.40;99.90
54126;DHT22;40360;52.992;6.796;2022-11-04T09:09:53;10.50;99.90
54126;DHT22;40360;52.992;6.796;2022-11-04T09:12:19;10.60;99.90
54126;DHT22;40360;52.992;6.796;2022-11-04T09:14:45;10.60;99.90
54126;DHT22;40360;52.992;6.796;2022-11-04T09:17:10;10.70;99.90
54126;DHT22;40360;52.992;6.796;2022-11-04T09:19:36;10.70;99.90
54126;DHT22;40360;52.992;6.796;2022-11-04T09:22:01;10.70;99.90
54126;DHT22;40360;52.992;6.796;2022-11-04T09:24:27;10.80;99.90
54126;DHT22;40360;52.992;6.796;2022-11-04T09:26:53;10.80;99.90
54126;DHT22;40360;52.992;6.796;2022-11-04T09:29:18;10.80;99.90
54126;DHT22;40360;52.992;6.796;2022-11-04T09:31:44;10.80;99.90
54126;DHT22;40360;52.992;6.796;2022-11-04T09:34:10;10.90;99.90
54126;DHT22;40360;52.992;6.796;2022-11-04T09:36:35;10.90;99.90
54126;DHT22;40360;52.992;6.796;2022-11-04T09:39:01;10.90;99.90
54126;DHT22;40360;52.992;6.796;2022-11-04T09:41:48;10.90;99.90
54126;DHT22;40360;52.992;6.796;2022-11-04T09:46:45;11.00;99.90
54126;DHT22;40360;52.992;6.796;2022-11-04T09:49:13;10.90;99.90
54126;DHT22;40360;52.992;6.796;2022-11-04T09:51:42;10.90;99.90
54126;DHT22;40360;52.992;6.796;2022-11-04T09:57:12;10.90;99.90
54126;DHT22;40360;52.992;6.796;2022-11-04T09:59:40;11.00;99.90
54126;DHT22;40360;52.992;6.796;2022-11-04T10:08:48;11.20;99.90
54126;DHT22;40360;52.992;6.796;2022-11-04T10:11:20;11.30;99.90
54126;DHT22;40360;52.992;6.796;2022-11-04T10:13:59;11.30;99.90
54126;DHT22;40360;52.992;6.796;2022-11-04T10:29:43;11.40;99.90
54126;DHT22;40360;52.992;6.796;2022-11-04T10:32:34;11.40;99.90
54126;DHT22;40360;52.992;6.796;2022-11-04T10:35:05;11.40;99.90
54126;DHT22;40360;52.992;6.796;2022-11-04T10:37:32;11.30;99.90
54126;DHT22;40360;52.992;6.796;2022-11-04T10:40:28;11.30;99.90
54126;DHT22;40360;52.992;6.796;2022-11-04T10:42:59;11.30;99.90
54126;DHT22;40360;52.992;6.796;2022-11-04T10:45:57;11.30;99.90
54126;DHT22;40360;52.992;6.796;2022-11-04T10:48:35;11.50;99.90
54126;DHT22;40360;52.992;6.796;2022-11-04T10:51:04;11.70;99.90
54126;DHT22;40360;52.992;6.796;2022-11-04T10:53:31;11.70;99.90
54126;DHT22;40360;52.992;6.796;2022-11-04T10:56:17;11.80;99.90
54126;DHT22;40360;52.992;6.796;2022-11-04T10:58:46;11.80;99.90
54126;DHT22;40360;52.992;6.796;2022-11-04T11:01:26;11.80;99.90
54126;DHT22;40360;52.992;6.796;2022-11-04T11:03:54;11.70;99.90
54126;DHT22;40360;52.992;6.796;2022-11-04T11:06:24;11.70;99.90
54126;DHT22;40360;52.992;6.796;2022-11-04T11:08:54;11.60;99.90
54126;DHT22;40360;52.992;6.796;2022-11-04T11:11:48;11.60;99.90
54126;DHT22;40360;52.992;6.796;2022-11-04T11:16:53;11.50;99.90
54126;DHT22;40360;52.992;6.796;2022-11-04T11:19:20;11.50;99.90
54126;DHT22;40360;52.992;6.796;2022-11-04T11:21:49;11.60;99.90
54126;DHT22;40360;52.992;6.796;2022-11-04T11:24:23;11.60;99.90
54126;DHT22;40360;52.992;6.796;2022-11-04T11:26:53;11.60;99.90
54126;DHT22;40360;52.992;6.796;2022-11-04T11:29:26;11.60;99.90
54126;DHT22;40360;52.992;6.796;2022-11-04T11:31:53;11.70;99.90
54126;DHT22;40360;52.992;6.796;2022-11-04T11:34:27;11.70;99.90
54126;DHT22;40360;52.992;6.796;2022-11-04T11:36:55;11.80;99.90
54126;DHT22;40360;52.992;6.796;2022-11-04T11:39:27;11.80;99.90
54126;DHT22;40360;52.992;6.796;2022-11-04T11:42:00;11.80;99.90
54126;DHT22;40360;52.992;6.796;2022-11-04T11:47:20;11.80;99.90
54126;DHT22;40360;52.992;6.796;2022-11-04T11:50:13;11.70;99.90
54126;DHT22;40360;52.992;6.796;2022-11-04T11:52:41;11.70;99.90
54126;DHT22;40360;52.992;6.796;2022-11-04T12:00:38;12.00;99.90
54126;DHT22;40360;52.992;6.796;2022-11-04T12:03:18;12.10;99.90
54126;DHT22;40360;52.992;6.796;2022-11-04T12:05:55;12.30;99.90
54126;DHT22;40360;52.992;6.796;2022-11-04T12:08:42;12.40;99.90
54126;DHT22;40360;52.992;6.796;2022-11-04T12:11:22;12.50;99.90
54126;DHT22;40360;52.992;6.796;2022-11-04T12:13:56;12.50;99.90
54126;DHT22;40360;52.992;6.796;2022-11-04T12:21:48;12.90;99.90
54126;DHT22;40360;52.992;6.796;2022-11-04T12:30:28;12.80;99.90
54126;DHT22;40360;52.992;6.796;2022-11-04T12:33:13;12.50;99.90
54126;DHT22;40360;52.992;6.796;2022-11-04T12:36:02;12.40;99.90
54126;DHT22;40360;52.992;6.796;2022-11-04T12:43:55;11.90;99.90
54126;DHT22;40360;52.992;6.796;2022-11-04T12:46:31;11.80;99.90
54126;DHT22;40360;52.992;6.796;2022-11-04T13:02:50;11.40;99.90
54126;DHT22;40360;52.992;6.796;2022-11-04T13:05:31;11.40;99.90
54126;DHT22;40360;52.992;6.796;2022-11-04T13:08:44;11.30;99.90
54126;DHT22;40360;52.992;6.796;2022-11-04T13:16:27;11.10;99.90
54126;DHT22;40360;52.992;6.796;2022-11-04T13:18:54;11.10;99.90
54126;DHT22;40360;52.992;6.796;2022-11-04T13:21:24;11.00;99.90
54126;DHT22;40360;52.992;6.796;2022-11-04T13:24:01;10.90;99.90
54126;DHT22;40360;52.992;6.796;2022-11-04T13:26:30;10.90;99.90
54126;DHT22;40360;52.992;6.796;2022-11-04T13:29:00;10.80;99.90
54126;DHT22;40360;52.992;6.796;2022-11-04T13:37:05;10.70;99.90
54126;DHT22;40360;52.992;6.796;2022-11-04T13:39:39;10.70;99.90
54126;DHT22;40360;52.992;6.796;2022-11-04T13:44:46;10.60;99.90
54126;DHT22;40360;52.992;6.796;2022-11-04T13:47:35;10.60;99.90
54126;DHT22;40360;52.992;6.796;2022-11-04T13:50:01;10.50;99.90
54126;DHT22;40360;52.992;6.796;2022-11-04T13:52:30;10.60;99.90
54126;DHT22;40360;52.992;6.796;2022-11-04T13:55:02;10.50;99.90
54126;DHT22;40360;52.992;6.796;2022-11-04T13:57:32;10.50;99.90
54126;DHT22;40360;52.992;6.796;2022-11-04T14:02:44;10.50;99.90
54126;DHT22;40360;52.992;6.796;2022-11-04T14:18:30;10.70;99.90
54126;DHT22;40360;52.992;6.796;2022-11-04T14:21:09;10.70;99.90
54126;DHT22;40360;52.992;6.796;2022-11-04T14:23:37;10.80;99.90
54126;DHT22;40360;52.992;6.796;2022-11-04T14:26:14;10.80;99.90
54126;DHT22;40360;52.992;6.796;2022-11-04T14:28:42;10.80;99.90
54126;DHT22;40360;52.992;6.796;2022-11-04T14:31:12;10.80;99.90
54126;DHT22;40360;52.992;6.796;2022-11-04T14:33:51;10.80;99.90
54126;DHT22;40360;52.992;6.796;2022-11-04T14:39:06;10.70;99.90
54126;DHT22;40360;52.992;6.796;2022-11-04T14:42:11;10.70;99.90
54126;DHT22;40360;52.992;6.796;2022-11-04T14:47:20;10.70;99.90
54126;DHT22;40360;52.992;6.796;2022-11-04T14:49:52;10.60;99.90
54126;DHT22;40360;52.992;6.796;2022-11-04T14:57:58;10.60;99.90
54126;DHT22;40360;52.992;6.796;2022-11-04T15:00:34;10.50;99.90
54126;DHT22;40360;52.992;6.796;2022-11-04T15:05:30;10.50;99.90
54126;DHT22;40360;52.992;6.796;2022-11-04T15:08:45;10.40;99.90
54126;DHT22;40360;52.992;6.796;2022-11-04T15:10:49;10.40;99.90
54126;DHT22;40360;52.992;6.796;2022-11-04T15:13:18;10.30;99.90
54126;DHT22;40360;52.992;6.796;2022-11-04T15:15:45;10.30;99.90
54126;DHT22;40360;52.992;6.796;2022-11-04T15:18:20;10.30;99.90
54126;DHT22;40360;52.992;6.796;2022-11-04T15:20:49;10.30;99.90
54126;DHT22;40360;52.992;6.796;2022-11-04T15:23:44;10.30;99.90
54126;DHT22;40360;52.992;6.796;2022-11-04T15:26:23;10.30;99.90
54126;DHT22;40360;52.992;6.796;2022-11-04T15:28:51;10.20;99.90
54126;DHT22;40360;52.992;6.796;2022-11-04T15:31:20;10.20;99.90
54126;DHT22;40360;52.992;6.796;2022-11-04T15:33:52;10.10;99.90
54126;DHT22;40360;52.992;6.796;2022-11-04T15:36:23;10.10;99.90
54126;DHT22;40360;52.992;6.796;2022-11-04T15:38:56;11.10;99.90
54126;DHT22;40360;52.992;6.796;2022-11-04T15:41:23;10.00;99.90
54126;DHT22;40360;52.992;6.796;2022-11-04T15:44:28;9.90;99.90
54126;DHT22;40360;52.992;6.796;2022-11-04T15:47:40;9.80;99.90
54126;DHT22;40360;52.992;6.796;2022-11-04T15:49:41;9.90;99.90
54126;DHT22;40360;52.992;6.796;2022-11-04T15:52:11;9.70;99.90
54126;DHT22;40360;52.992;6.796;2022-11-04T15:54:41;9.70;99.90
54126;DHT22;40360;52.992;6.796;2022-11-04T16:07:41;9.50;99.90
54126;DHT22;40360;52.992;6.796;2022-11-04T16:10:35;9.50;99.90
54126;DHT22;40360;52.992;6.796;2022-11-04T16:13:16;9.50;99.90
54126;DHT22;40360;52.992;6.796;2022-11-04T16:21:26;9.40;99.90
54126;DHT22;40360;52.992;6.796;2022-11-04T16:26:35;9.30;99.90
54126;DHT22;40360;52.992;6.796;2022-11-04T16:29:12;9.20;99.90
54126;DHT22;40360;52.992;6.796;2022-11-04T16:31:39;9.30;99.90
54126;DHT22;40360;52.992;6.796;2022-11-04T16:34:08;9.20;99.90
54126;DHT22;40360;52.992;6.796;2022-11-04T16:36:37;9.20;99.90
54126;DHT22;40360;52.992;6.796;2022-11-04T16:39:04;9.20;99.90
54126;DHT22;40360;52.992;6.796;2022-11-04T16:41:39;9.10;99.90
54126;DHT22;40360;52.992;6.796;2022-11-04T16:44:14;9.10;99.90
54126;DHT22;40360;52.992;6.796;2022-11-04T16:46:42;9.00;99.90
54126;DHT22;40360;52.992;6.796;2022-11-04T16:49:13;9.00;99.90
54126;DHT22;40360;52.992;6.796;2022-11-04T16:51:39;9.00;99.90
54126;DHT22;40360;52.992;6.796;2022-11-04T16:54:05;9.00;99.90
54126;DHT22;40360;52.992;6.796;2022-11-04T16:56:32;8.90;99.90
54126;DHT22;40360;52.992;6.796;2022-11-04T16:58:58;8.90;99.90
54126;DHT22;40360;52.992;6.796;2022-11-04T17:01:24;8.80;99.90
54126;DHT22;40360;52.992;6.796;2022-11-04T17:03:49;8.90;99.90
54126;DHT22;40360;52.992;6.796;2022-11-04T17:06:16;8.80;99.90
54126;DHT22;40360;52.992;6.796;2022-11-04T17:08:42;8.70;99.90
54126;DHT22;40360;52.992;6.796;2022-11-04T17:11:09;8.70;99.90
54126;DHT22;40360;52.992;6.796;2022-11-04T17:13:34;8.70;99.90
54126;DHT22;40360;52.992;6.796;2022-11-04T17:16:01;8.70;99.90
54126;DHT22;40360;52.992;6.796;2022-11-04T17:18:29;8.70;99.90
54126;DHT22;40360;52.992;6.796;2022-11-04T17:20:56;8.70;99.90
54126;DHT22;40360;52.992;6.796;2022-11-04T17:23:21;8.70;99.90
54126;DHT22;40360;52.992;6.796;2022-11-04T17:25:48;8.60;99.90
54126;DHT22;40360;52.992;6.796;2022-11-04T17:28:13;8.60;99.90
54126;DHT22;40360;52.992;6.796;2022-11-04T17:30:43;8.50;99.90
54126;DHT22;40360;52.992;6.796;2022-11-04T17:33:13;8.50;99.90
54126;DHT22;40360;52.992;6.796;2022-11-04T17:35:41;8.50;99.90
54126;DHT22;40360;52.992;6.796;2022-11-04T17:38:09;8.40;99.90
54126;DHT22;40360;52.992;6.796;2022-11-04T17:40:35;8.40;99.90
54126;DHT22;40360;52.992;6.796;2022-11-04T17:43:21;8.30;99.90
54126;DHT22;40360;52.992;6.796;2022-11-04T17:46:05;8.30;99.90
54126;DHT22;40360;52.992;6.796;2022-11-04T17:48:49;8.30;99.90
54126;DHT22;40360;52.992;6.796;2022-11-04T17:51:15;8.30;99.90
54126;DHT22;40360;52.992;6.796;2022-11-04T17:53:40;8.30;99.90
54126;DHT22;40360;52.992;6.796;2022-11-04T17:56:16;8.30;99.90
54126;DHT22;40360;52.992;6.796;2022-11-04T17:58:42;8.30;99.90
54126;DHT22;40360;52.992;6.796;2022-11-04T18:01:09;8.40;99.90
54126;DHT22;40360;52.992;6.796;2022-11-04T18:03:35;8.30;99.90
54126;DHT22;40360;52.992;6.796;2022-11-04T18:06:01;8.20;99.90
54126;DHT22;40360;52.992;6.796;2022-11-04T18:08:27;8.20;99.90
54126;DHT22;40360;52.992;6.796;2022-11-04T18:10:57;8.20;99.90
54126;DHT22;40360;52.992;6.796;2022-11-04T18:13:23;8.20;99.90
54126;DHT22;40360;52.992;6.796;2022-11-04T18:15:48;8.10;99.90
54126;DHT22;40360;52.992;6.796;2022-11-04T18:18:14;8.10;99.90
54126;DHT22;40360;52.992;6.796;2022-11-04T18:20:40;8.10;99.90
54126;DHT22;40360;52.992;6.796;2022-11-04T18:23:05;8.10;99.90
54126;DHT22;40360;52.992;6.796;2022-11-04T18:25:31;8.00;99.90
54126;DHT22;40360;52.992;6.796;2022-11-04T18:27:57;8.00;99.90
54126;DHT22;40360;52.992;6.796;2022-11-04T18:30:22;8.00;99.90
54126;DHT22;40360;52.992;6.796;2022-11-04T18:32:48;8.00;99.90
54126;DHT22;40360;52.992;6.796;2022-11-04T18:35:14;7.90;99.90
54126;DHT22;40360;52.992;6.796;2022-11-04T18:37:39;7.90;99.90
54126;DHT22;40360;52.992;6.796;2022-11-04T18:40:05;7.90;99.90
54126;DHT22;40360;52.992;6.796;2022-11-04T18:42:31;7.90;99.90
54126;DHT22;40360;52.992;6.796;2022-11-04T18:44:57;7.90;99.90
54126;DHT22;40360;52.992;6.796;2022-11-04T18:47:22;7.90;99.90
54126;DHT22;40360;52.992;6.796;2022-11-04T18:49:48;7.80;99.90
54126;DHT22;40360;52.992;6.796;2022-11-04T18:52:14;7.80;99.90
54126;DHT22;40360;52.992;6.796;2022-11-04T18:54:42;7.80;99.90
54126;DHT22;40360;52.992;6.796;2022-11-04T18:57:07;7.80;99.90
54126;DHT22;40360;52.992;6.796;2022-11-04T18:59:34;7.80;99.90
54126;DHT22;40360;52.992;6.796;2022-11-04T19:02:00;7.80;99.90
54126;DHT22;40360;52.992;6.796;2022-11-04T19:04:26;7.70;99.90
54126;DHT22;40360;52.992;6.796;2022-11-04T19:06:51;7.70;99.90
54126;DHT22;40360;52.992;6.796;2022-11-04T19:09:17;7.70;99.90
54126;DHT22;40360;52.992;6.796;2022-11-04T19:11:43;7.70;99.90
54126;DHT22;40360;52.992;6.796;2022-11-04T19:14:13;7.60;99.90
54126;DHT22;40360;52.992;6.796;2022-11-04T19:16:41;7.60;99.90
54126;DHT22;40360;52.992;6.796;2022-11-04T19:19:08;7.60;99.90
54126;DHT22;40360;52.992;6.796;2022-11-04T19:21:36;7.60;99.90
54126;DHT22;40360;52.992;6.796;2022-11-04T19:24:05;7.50;99.90
54126;DHT22;40360;52.992;6.796;2022-11-04T19:26:33;7.60;99.90
54126;DHT22;40360;52.992;6.796;2022-11-04T19:29:02;7.60;99.90
54126;DHT22;40360;52.992;6.796;2022-11-04T19:31:29;7.60;99.90
54126;DHT22;40360;52.992;6.796;2022-11-04T19:34:00;7.60;99.90
54126;DHT22;40360;52.992;6.796;2022-11-04T19:36:28;7.60;99.90
54126;DHT22;40360;52.992;6.796;2022-11-04T19:38:55;7.60;99.90
54126;DHT22;40360;52.992;6.796;2022-11-04T19:41:22;7.60;99.90
54126;DHT22;40360;52.992;6.796;2022-11-04T19:44:09;7.50;99.90
54126;DHT22;40360;52.992;6.796;2022-11-04T19:46:35;7.50;99.90
54126;DHT22;40360;52.992;6.796;2022-11-04T19:49:02;7.50;99.90
54126;DHT22;40360;52.992;6.796;2022-11-04T19:51:28;7.50;99.90
54126;DHT22;40360;52.992;6.796;2022-11-04T19:53:54;7.50;99.90
54126;DHT22;40360;52.992;6.796;2022-11-04T19:56:22;7.50;99.90
54126;DHT22;40360;52.992;6.796;2022-11-04T19:58:48;7.50;99.90
54126;DHT22;40360;52.992;6.796;2022-11-04T20:01:15;7.40;99.90
54126;DHT22;40360;52.992;6.796;2022-11-04T20:03:41;7.40;99.90
54126;DHT22;40360;52.992;6.796;2022-11-04T20:06:10;7.40;99.90
54126;DHT22;40360;52.992;6.796;2022-11-04T20:08:42;7.40;99.90
54126;DHT22;40360;52.992;6.796;2022-11-04T20:11:12;7.40;99.90
54126;DHT22;40360;52.992;6.796;2022-11-04T20:13:38;7.30;99.90
54126;DHT22;40360;52.992;6.796;2022-11-04T20:16:23;7.30;99.90
54126;DHT22;40360;52.992;6.796;2022-11-04T20:18:51;7.30;99.90
54126;DHT22;40360;52.992;6.796;2022-11-04T20:21:19;7.30;99.90
54126;DHT22;40360;52.992;6.796;2022-11-04T20:23:46;7.30;99.90
54126;DHT22;40360;52.992;6.796;2022-11-04T20:26:16;7.30;99.90
54126;DHT22;40360;52.992;6.796;2022-11-04T20:28:42;7.40;99.90
54126;DHT22;40360;52.992;6.796;2022-11-04T20:33:36;7.50;99.90
54126;DHT22;40360;52.992;6.796;2022-11-04T20:36:03;7.50;99.90
54126;DHT22;40360;52.992;6.796;2022-11-04T20:38:28;7.50;99.90
54126;DHT22;40360;52.992;6.796;2022-11-04T20:40:54;7.50;99.90
54126;DHT22;40360;52.992;6.796;2022-11-04T20:43:20;7.50;99.90
54126;DHT22;40360;52.992;6.796;2022-11-04T20:45:45;7.60;99.90
54126;DHT22;40360;52.992;6.796;2022-11-04T20:48:11;7.60;99.90
54126;DHT22;40360;52.992;6.796;2022-11-04T20:50:37;7.50;99.90
54126;DHT22;40360;52.992;6.796;2022-11-04T20:53:03;7.50;99.90
54126;DHT22;40360;52.992;6.796;2022-11-04T20:55:28;7.40;99.90
54126;DHT22;40360;52.992;6.796;2022-11-04T20:57:54;7.40;99.90
54126;DHT22;40360;52.992;6.796;2022-11-04T21:00:20;7.40;99.90
54126;DHT22;40360;52.992;6.796;2022-11-04T21:02:45;7.30;99.90
54126;DHT22;40360;52.992;6.796;2022-11-04T21:05:11;7.30;99.90
54126;DHT22;40360;52.992;6.796;2022-11-04T21:07:37;7.30;99.90
54126;DHT22;40360;52.992;6.796;2022-11-04T21:10:04;7.20;99.90
54126;DHT22;40360;52.992;6.796;2022-11-04T21:12:30;7.20;99.90
54126;DHT22;40360;52.992;6.796;2022-11-04T21:14:56;7.10;99.90
54126;DHT22;40360;52.992;6.796;2022-11-04T21:17:22;7.10;99.90
54126;DHT22;40360;52.992;6.796;2022-11-04T21:19:47;7.00;99.90
54126;DHT22;40360;52.992;6.796;2022-11-04T21:22:13;7.00;99.90
54126;DHT22;40360;52.992;6.796;2022-11-04T21:24:39;6.90;99.90
54126;DHT22;40360;52.992;6.796;2022-11-04T21:27:05;6.90;99.90
54126;DHT22;40360;52.992;6.796;2022-11-04T21:29:31;8.20;99.90
54126;DHT22;40360;52.992;6.796;2022-11-04T21:31:56;6.70;99.90
54126;DHT22;40360;52.992;6.796;2022-11-04T21:34:22;6.60;99.90
54126;DHT22;40360;52.992;6.796;2022-11-04T21:36:51;6.60;99.90
54126;DHT22;40360;52.992;6.796;2022-11-04T21:39:17;6.60;99.90
54126;DHT22;40360;52.992;6.796;2022-11-04T21:41:42;6.60;99.90
54126;DHT22;40360;52.992;6.796;2022-11-04T21:44:09;6.50;99.90
54126;DHT22;40360;52.992;6.796;2022-11-04T21:46:36;6.50;99.90
54126;DHT22;40360;52.992;6.796;2022-11-04T21:49:02;6.50;99.90
54126;DHT22;40360;52.992;6.796;2022-11-04T21:51:30;6.50;99.90
54126;DHT22;40360;52.992;6.796;2022-11-04T21:53:56;6.40;99.90
54126;DHT22;40360;52.992;6.796;2022-11-04T21:56:27;6.40;99.90
54126;DHT22;40360;52.992;6.796;2022-11-04T21:58:54;6.40;99.90
54126;DHT22;40360;52.992;6.796;2022-11-04T22:01:23;6.30;99.90
54126;DHT22;40360;52.992;6.796;2022-11-04T22:03:54;6.20;99.90
54126;DHT22;40360;52.992;6.796;2022-11-04T22:06:20;6.20;99.90
54126;DHT22;40360;52.992;6.796;2022-11-04T22:08:48;6.10;99.90
54126;DHT22;40360;52.992;6.796;2022-11-04T22:11:26;6.20;99.90
54126;DHT22;40360;52.992;6.796;2022-11-04T22:13:57;6.20;99.90
54126;DHT22;40360;52.992;6.796;2022-11-04T22:16:25;6.10;99.90
54126;DHT22;40360;52.992;6.796;2022-11-04T22:18:53;6.10;99.90
54126;DHT22;40360;52.992;6.796;2022-11-04T22:21:20;6.10;99.90
54126;DHT22;40360;52.992;6.796;2022-11-04T22:23:47;6.20;99.90
54126;DHT22;40360;52.992;6.796;2022-11-04T22:26:18;6.20;99.90
54126;DHT22;40360;52.992;6.796;2022-11-04T22:28:45;6.20;99.90
54126;DHT22;40360;52.992;6.796;2022-11-04T22:31:16;6.20;99.90
54126;DHT22;40360;52.992;6.796;2022-11-04T22:33:43;6.20;99.90
54126;DHT22;40360;52.992;6.796;2022-11-04T22:36:09;6.20;99.90
54126;DHT22;40360;52.992;6.796;2022-11-04T22:38:36;6.20;99.90
54126;DHT22;40360;52.992;6.796;2022-11-04T22:41:04;6.20;99.90
54126;DHT22;40360;52.992;6.796;2022-11-04T22:43:31;6.10;99.90
54126;DHT22;40360;52.992;6.796;2022-11-04T22:45:57;6.20;99.90
54126;DHT22;40360;52.992;6.796;2022-11-04T22:48:23;6.20;99.90
54126;DHT22;40360;52.992;6.796;2022-11-04T22:50:57;6.20;99.90
54126;DHT22;40360;52.992;6.796;2022-11-04T22:53:23;6.20;99.90
54126;DHT22;40360;52.992;6.796;2022-11-04T22:55:49;6.20;99.90
54126;DHT22;40360;52.992;6.796;2022-11-04T22:58:15;6.20;99.90
54126;DHT22;40360;52.992;6.796;2022-11-04T23:00:41;6.20;99.90
54126;DHT22;40360;52.992;6.796;2022-11-04T23:03:07;6.20;99.90
54126;DHT22;40360;52.992;6.796;2022-11-04T23:05:32;6.10;99.90
54126;DHT22;40360;52.992;6.796;2022-11-04T23:07:59;6.20;99.90
54126;DHT22;40360;52.992;6.796;2022-11-04T23:10:29;6.10;99.90
54126;DHT22;40360;52.992;6.796;2022-11-04T23:13:14;6.20;99.90
54126;DHT22;40360;52.992;6.796;2022-11-04T23:15:59;6.30;99.90
54126;DHT22;40360;52.992;6.796;2022-11-04T23:18:46;6.30;99.90
54126;DHT22;40360;52.992;6.796;2022-11-04T23:21:15;6.20;99.90
54126;DHT22;40360;52.992;6.796;2022-11-04T23:23:59;6.20;99.90
54126;DHT22;40360;52.992;6.796;2022-11-04T23:26:44;6.30;99.90
54126;DHT22;40360;52.992;6.796;2022-11-04T23:29:11;6.20;99.90